Flight Briefing for CMB863

Departure Arrival
Ramstein Air Force Base (ETAR)
Click to view FAA NOTAMS
Bahrain International Airport (OBBI)
Click to view FAA NOTAMS
Departure Time Arrival Time
N/A N/A
Aircraft Distance
B757-200SF 2423nm
Departure METAR Arrival METAR
ETAR 232256Z AUTO 00000KT 9999 FEW190 10/08 A3002 RMK AO2 SLP167 T01030084 402130031 $ OBBI 232330Z 26007KT CAVOK 31/19 Q1006 NOSIG
Suggested Route
RINEX RIDAR UZ738 UNKEN INVED M747 CND L5 ADINA L851 TBN W71 ERZ A4 VAN OTIDO UM688 DERNU UM688 AD UP975 IMDOX LOPOL L443 RAMSI LADNA


View recent IFR Routes data
Notes
USTRANSCOM CONTRACT FLIGHT

Charts and Procedures

Charts for ETAR
No chart available
Charts for OBBI
No chart available

Windy.com Weather Map